NO-0014 weather

Meråker Airfield Øian
Meråker, Sør-Trøndelag, Norway

Public forecast

Using degrees Celsius for public forecast. Weather courtesy of forecast.io.

METAR (pilot weather report)

Closest report is Trondheim Airport Værnes, 24.4 nm (45.3 km) WNW. Retrieved 2019/09/23 05:20 UTC (33 minutes ago):

ENVA 230520Z 12005KT CAVOK 07/04 Q1017 NOSIG RMK WIND 670FT 10011KT

TAF (pilot weather forecast)

Forecast is more than 12 hours old.

Closest forecast is Trondheim Airport Værnes, 24.4 nm (45.3 km) WNW. Retrieved 2019/09/22 00:57 UTC (1 day ago):

TAF ENVA 222300Z 2300/2324 08008KT 9999 FEW020 SCT050 PROB30 TEMPO 2311/2317 25010KT PROB30 2320/2324 0500 FG VV001